2. Juli 2022

Uhrzeit Code Wetter Temp. Sichtweite Wolkendecke Wind METAR/SPECI
9:30 pm
V
75 °F 6¼ mi+ - Var Var 3 kt METAR LFSL 021930Z AUTO VRB03KT CAVOK 24/15 Q1019 NOSIG
9:00 pm
V
79 °F 6¼ mi+ - 340° 340° 4 kt METAR LFSL 021900Z AUTO 34004KT CAVOK 26/14 Q1019 NOSIG
8:30 pm
V
79 °F 6¼ mi+ - 340° 340° 6 kt METAR LFSL 021830Z AUTO 34006KT CAVOK 26/14 Q1019 NOSIG
8:00 pm
V
81 °F 6¼ mi+ - 330° 330° 6 kt METAR LFSL 021800Z AUTO 33006KT 310V010 CAVOK 27/14 Q1019 NOSIG
7:30 pm
V
81 °F 6¼ mi+ - 330° 330° 6 kt METAR LFSL 021730Z AUTO 33006KT CAVOK 27/14 Q1019 NOSIG
7:00 pm
V
82 °F 6¼ mi+ - 330° 330° 6 kt METAR LFSL 021700Z AUTO 33006KT 300V040 CAVOK 28/14 Q1019 NOSIG
6:30 pm
V
84 °F 6¼ mi+ - Var Var 3 kt METAR LFSL 021630Z AUTO VRB03KT CAVOK 29/11 Q1019 NOSIG
6:00 pm
V
84 °F 6¼ mi+ - Var Var 3 kt METAR LFSL 021600Z AUTO VRB03KT CAVOK 29/10 Q1019 NOSIG
5:30 pm
V
84 °F 6¼ mi+ - Var Var 3 kt METAR LFSL 021530Z AUTO VRB03KT CAVOK 29/11 Q1019 NOSIG
5:00 pm
V
82 °F 6¼ mi+ - 170° 170° 4 kt METAR LFSL 021500Z AUTO 17004KT 090V250 CAVOK 28/10 Q1019 NOSIG
4:30 pm
V
82 °F 6¼ mi+ - Var Var 2 kt METAR LFSL 021430Z AUTO VRB02KT CAVOK 28/11 Q1019 NOSIG
4:00 pm
V
82 °F 6¼ mi+ - Var Var 2 kt METAR LFSL 021400Z AUTO VRB02KT CAVOK 28/10 Q1019 NOSIG
3:30 pm
V
81 °F 6¼ mi+ - Var Var 3 kt METAR LFSL 021330Z AUTO VRB03KT CAVOK 27/09 Q1019 NOSIG
3:00 pm
V
79 °F 6¼ mi+ - Var Var 3 kt METAR LFSL 021300Z AUTO VRB03KT CAVOK 26/12 Q1019 NOSIG
2:30 pm
V
79 °F 6¼ mi+ - 160° 160° 4 kt METAR LFSL 021230Z AUTO 16004KT 090V230 CAVOK 26/12 Q1020 NOSIG
2:00 pm
V
77 °F 6¼ mi+ - 180° 180° 5 kt METAR LFSL 021200Z AUTO 18005KT 110V240 CAVOK 25/12 Q1020 NOSIG
1:30 pm
V
75 °F 6¼ mi+ - Var Var 2 kt METAR LFSL 021130Z AUTO VRB02KT CAVOK 24/12 Q1020 NOSIG
1:00 pm
V
75 °F 6¼ mi+ - 090° 090° 4 kt METAR LFSL 021100Z AUTO 09004KT 030V150 CAVOK 24/12 Q1020 NOSIG
12:30 pm
V
73 °F 6¼ mi+ - Var Var 2 kt METAR LFSL 021030Z AUTO VRB02KT CAVOK 23/11 Q1020 NOSIG
12:00 pm
V
73 °F 6¼ mi+ - Var Var 3 kt METAR LFSL 021000Z AUTO VRB03KT CAVOK 23/12 Q1020 NOSIG
11:30 am
V
72 °F 6¼ mi+ - Var Var 2 kt METAR LFSL 020930Z AUTO VRB02KT CAVOK 22/11 Q1020 NOSIG
11:00 am
V
70 °F 6¼ mi+ - Var Var 2 kt METAR LFSL 020900Z AUTO VRB02KT CAVOK 21/12 Q1020 NOSIG
10:30 am
V
68 °F 6¼ mi+ - Var Var 3 kt METAR LFSL 020830Z AUTO VRB03KT CAVOK 20/12 Q1020 NOSIG
10:00 am
V
64 °F 6¼ mi+ - 160° 160° 4 kt METAR LFSL 020800Z AUTO 16004KT 120V200 CAVOK 18/11 Q1021 NOSIG
9:30 am
V
63 °F 6¼ mi+ - 120° 120° 4 kt METAR LFSL 020730Z AUTO 12004KT 080V170 CAVOK 17/11 Q1020 NOSIG
9:00 am
V
61 °F 6¼ mi+ - 110° 110° 8 kt METAR LFSL 020700Z AUTO 11008KT CAVOK 16/11 Q1021 NOSIG
8:30 am
V
59 °F 6¼ mi+ - 130° 130° 7 kt METAR LFSL 020630Z AUTO 13007KT 100V170 CAVOK 15/11 Q1020 NOSIG
8:00 am
V
57 °F 6¼ mi+ - 120° 120° 4 kt METAR LFSL 020600Z AUTO 12004KT CAVOK 14/11 Q1020 NOSIG
7:30 am
V
54 °F 6¼ mi+ - Var 000° 0 kt METAR LFSL 020530Z AUTO 00000KT CAVOK 12/10 Q1020 NOSIG
7:00 am
L
50 °F ¾ mi - Var 000° 0 kt METAR LFSL 020500Z AUTO 00000KT 9999 1300 R29/0900D NSC 10/09 Q1020 NOSIG
6:30 am
V
48 °F 6¼ mi+ - Var 000° 0 kt METAR LFSL 020430Z AUTO 00000KT CAVOK 09/08 Q1020 NOSIG
6:00 am
V
46 °F 6¼ mi+ - 140° 140° 2 kt METAR LFSL 020400Z AUTO 14002KT CAVOK 08/08 Q1020 NOSIG
5:30 am
V
48 °F 6¼ mi+ - 110° 110° 3 kt METAR LFSL 020330Z AUTO 11003KT CAVOK 09/08 Q1020 NOSIG
5:00 am
V
48 °F 6¼ mi+ - 150° 150° 1 kt METAR LFSL 020300Z AUTO 15001KT CAVOK 09/08 Q1020 NOSIG
4:30 am
V
48 °F 6¼ mi+ - Var 000° 0 kt METAR LFSL 020230Z AUTO 00000KT CAVOK 09/08 Q1020 NOSIG
4:00 am
V
50 °F 6¼ mi+ - Var 000° 0 kt METAR LFSL 020200Z AUTO 00000KT CAVOK 10/09 Q1020
3:30 am
V
50 °F 6¼ mi+ - Var 000° 0 kt METAR LFSL 020130Z AUTO 00000KT CAVOK 10/09 Q1020
3:00 am
V
50 °F 6¼ mi+ - Var 000° 0 kt METAR LFSL 020100Z AUTO 00000KT CAVOK 10/09 Q1021
2:30 am
V
50 °F 6¼ mi+ - Var 000° 0 kt METAR LFSL 020030Z AUTO 00000KT CAVOK 10/09 Q1021
2:00 am
V
52 °F 6¼ mi+ - Var 000° 0 kt METAR LFSL 020000Z AUTO 00000KT CAVOK 11/10 Q1021
1:30 am
V
52 °F 6¼ mi+ - Var Var 1 kt METAR LFSL 012330Z AUTO VRB01KT CAVOK 11/10 Q1021
1:00 am
V
54 °F 6¼ mi+ - Var Var 3 kt METAR LFSL 012300Z AUTO VRB03KT CAVOK 12/10 Q1021
12:30 am
V
54 °F 6¼ mi+ - Var Var 2 kt METAR LFSL 012230Z AUTO VRB02KT CAVOK 12/10 Q1021
12:00 am
V
54 °F 6¼ mi+ - 300° 300° 2 kt METAR LFSL 012200Z AUTO 30002KT CAVOK 12/10 Q1021

1. Juli 2022

Uhrzeit Code Wetter Temp. Sichtweite Wolkendecke Wind METAR/SPECI
11:30 pm
V
55 °F 6¼ mi+ - 300° 300° 2 kt METAR LFSL 012130Z AUTO 30002KT CAVOK 13/11 Q1021
11:00 pm
V
55 °F 6¼ mi+ - 290° 290° 2 kt METAR LFSL 012100Z AUTO 29002KT CAVOK 13/11 Q1021
10:30 pm
V
57 °F 6¼ mi+ - Var Var 2 kt METAR LFSL 012030Z AUTO VRB02KT CAVOK 14/11 Q1021
10:00 pm
V
61 °F 6¼ mi+ - 310° 310° 3 kt METAR LFSL 012000Z AUTO 31003KT CAVOK 16/11 Q1021 NOSIG
9:30 pm
V
66 °F 6¼ mi+ - 320° 320° 4 kt METAR LFSL 011930Z AUTO 32004KT CAVOK 19/11 Q1020 NOSIG
9:00 pm
V
68 °F 6¼ mi+ - 330° 330° 5 kt METAR LFSL 011900Z AUTO 33005KT 300V360 CAVOK 20/09 Q1020 NOSIG
8:30 pm
V
70 °F 6¼ mi+ - 320° 320° 7 kt METAR LFSL 011830Z AUTO 32007KT CAVOK 21/09 Q1021 NOSIG
8:00 pm
V
70 °F 6¼ mi+ - 310° 310° 8 kt METAR LFSL 011800Z AUTO 31008KT CAVOK 21/09 Q1021 NOSIG
7:30 pm
V
70 °F 6¼ mi+ - 300° 300° 7 kt METAR LFSL 011730Z AUTO 30007KT 260V330 CAVOK 21/09 Q1021 NOSIG
7:00 pm
V
70 °F 6¼ mi+ - 320° 320° 8 kt METAR LFSL 011700Z AUTO 32008KT 280V360 CAVOK 21/09 Q1021 NOSIG
6:30 pm
V
70 °F 6¼ mi+ - 300° 300° 7 kt METAR LFSL 011630Z AUTO 30007KT 270V360 CAVOK 21/09 Q1021 NOSIG
6:00 pm
V
72 °F 6¼ mi+ - 290° 290° 7 kt METAR LFSL 011600Z AUTO 29007KT 230V320 9999 FEW049 22/09 Q1021 NOSIG
5:30 pm
V
70 °F 6¼ mi+ - 320° 320° 7 kt METAR LFSL 011530Z AUTO 32007KT 280V010 CAVOK 21/09 Q1021 NOSIG
5:00 pm
V
70 °F 6¼ mi+ - 330° 330° 6 kt METAR LFSL 011500Z AUTO 33006KT 250V030 CAVOK 21/09 Q1021 NOSIG
4:30 pm
V
70 °F 6¼ mi+ - Var Var 4 kt METAR LFSL 011430Z AUTO VRB04KT CAVOK 21/08 Q1021 NOSIG
4:00 pm
V
68 °F 6¼ mi+ - Var Var 4 kt METAR LFSL 011400Z AUTO VRB04KT 9999 SCT047 20/08 Q1021 NOSIG
3:30 pm
V
70 °F 6¼ mi+ - Var Var 5 kt METAR LFSL 011330Z AUTO VRB05KT 9999 SCT047 21/10 Q1021 NOSIG
3:00 pm
V
68 °F 6¼ mi+ 4.900 ft 320° 320° 7 kt METAR LFSL 011300Z AUTO 32007KT 250V020 9999 BKN049 20/08 Q1021 NOSIG
2:30 pm
V
66 °F 6¼ mi+ - Var Var 3 kt METAR LFSL 011230Z AUTO VRB03KT 9999 FEW047 19/09 Q1021 NOSIG
2:00 pm
V
66 °F 6¼ mi+ 4.500 ft 310° 310° 5 kt METAR LFSL 011200Z AUTO 31005KT 250V040 9999 BKN045 19/08 Q1022 NOSIG
1:30 pm
V
66 °F 6¼ mi+ 4.200 ft Var Var 4 kt METAR LFSL 011130Z AUTO VRB04KT 9999 BKN042 19/08 Q1022 NOSIG
1:00 pm
V
64 °F 6¼ mi+ - 310° 310° 5 kt METAR LFSL 011100Z AUTO 31005KT 220V010 9999 FEW038 18/08 Q1022 NOSIG
12:30 pm
V
64 °F 6¼ mi+ - 320° 320° 5 kt METAR LFSL 011030Z AUTO 32005KT 220V020 9999 FEW035 18/09 Q1022 NOSIG
12:00 pm
V
63 °F 6¼ mi+ 4.300 ft 330° 330° 5 kt METAR LFSL 011000Z AUTO 33005KT 280V020 9999 FEW033 BKN043 BKN049 17/10 Q1022 NOSIG
11:30 am
M
61 °F 6¼ mi+ 2.600 ft 350° 350° 4 kt METAR LFSL 010930Z AUTO 35004KT 300V030 9999 BKN026 BKN036 16/09 Q1022 NOSIG
11:00 am
V
61 °F 6¼ mi+ - Var Var 3 kt METAR LFSL 010900Z AUTO VRB03KT 9999 SCT018 16/10 Q1021 NOSIG
10:30 am
M
59 °F 6¼ mi+ 1.400 ft 360° 360° 4 kt METAR LFSL 010830Z AUTO 36004KT 320V030 9999 FEW008 BKN014 15/11 Q1021 BECMG NSC
10:00 am
I
57 °F 6¼ mi+ 700 ft 030° 030° 4 kt METAR LFSL 010800Z AUTO 03004KT 330V070 9999 BKN007 14/11 Q1021 BECMG FEW015
9:30 am
L
55 °F 6¼ mi+ 400 ft Var Var 3 kt METAR LFSL 010730Z AUTO VRB03KT 9999 BKN004 13/12 Q1021 BECMG FEW015
9:00 am
L
54 °F 6¼ mi+ 300 ft 350° 350° 3 kt METAR LFSL 010700Z AUTO 35003KT 300V020 9999 OVC003 12/12 Q1021 BECMG FEW015
8:30 am
L
54 °F 3 mi - 360° 360° 3 kt METAR LFSL 010630Z AUTO 36003KT 310V050 4900 R29/1200D BR VV/// 12/12 Q1021 BECMG 9999 NSW FEW015
8:00 am
L
54 °F ¼ mi - 310° 310° 3 kt METAR LFSL 010600Z AUTO 31003KT 280V360 0350 R29/0600U FG VV/// 12/11 Q1021 BECMG 9999 NSW FEW015
7:30 am
L
52 °F ⅛ mi - Var Var 2 kt METAR LFSL 010530Z AUTO VRB02KT 0200 R29/0275D FG VV/// 11/11 Q1021 BECMG 9999 NSW FEW008
7:00 am
L
48 °F ¼ mi - 110° 110° 2 kt METAR LFSL 010500Z AUTO 11002KT 0350 R29/0400N FG VV/// 09/09 Q1021 BECMG 9999 NSW FEW008
6:30 am
L
50 °F ⅛ mi - Var 000° 0 kt METAR LFSL 010430Z AUTO 00000KT 0300 R29/0325N FG VV/// 10/09 Q1021 BECMG 9999 NSW FEW008
6:00 am
L
50 °F ⅝ mi - Var Var 1 kt METAR LFSL 010400Z AUTO VRB01KT 1000 R29/1100U BCFG VV/// 10/10 Q1021 BECMG 9999 NSW FEW008
5:30 am
L
50 °F ¼ mi - Var 000° 0 kt METAR LFSL 010330Z AUTO 00000KT 0400 0350 R29/0450D FG VV/// 10/10 Q1021 BECMG 9999 NSW FEW008
5:00 am
L
52 °F ⅛ mi - Var 000° 0 kt METAR LFSL 010300Z AUTO 00000KT 0250 R29/0325N FG VV/// 11/11 Q1021 BECMG 0500 FG
4:30 am
L
52 °F ¼ mi - Var Var 1 kt METAR LFSL 010230Z AUTO VRB01KT 0500 R29/0600N FG VV/// 11/11 Q1021
4:00 am
L
52 °F 6¼ mi+ - Var 000° 0 kt METAR LFSL 010200Z AUTO 00000KT 9999 VV/// 11/10 Q1020
3:30 am
M
54 °F 6¼ mi+ 1.800 ft Var 000° 0 kt METAR LFSL 010130Z AUTO 00000KT 9999 FEW011 BKN018 BKN025 12/11 Q1021
3:00 am
M
52 °F 6¼ mi+ 1.000 ft 200° 200° 1 kt METAR LFSL 010100Z AUTO 20001KT 9999 SCT004 BKN010 OVC015 11/11 Q1021
2:30 am
L
52 °F 6¼ mi+ 400 ft Var 000° 0 kt METAR LFSL 010030Z AUTO 00000KT 9999 OVC004 11/10 Q1021
2:00 am
I
50 °F 6¼ mi+ 500 ft 180° 180° 1 kt METAR LFSL 010000Z AUTO 18001KT 9999 OVC005 10/10 Q1020
1:30 am
I
50 °F 6¼ mi+ 800 ft Var 000° 0 kt METAR LFSL 302330Z AUTO 00000KT 9999 BKN008 10/10 Q1021
1:00 am
V
52 °F 6¼ mi+ - 120° 120° 1 kt METAR LFSL 302300Z AUTO 12001KT 9999 FEW009 11/10 Q1020
12:30 am
L
52 °F 1 mi - Var Var 2 kt METAR LFSL 302230Z AUTO VRB02KT 1600 R29/1300U BCFG VV/// 11/10 Q1020
12:00 am
V
54 °F 6¼ mi+ 3.100 ft Var 000° 0 kt METAR LFSL 302200Z AUTO 00000KT 9999 BKN031 12/11 Q1020

30. Juni 2022

Uhrzeit Code Wetter Temp. Sichtweite Wolkendecke Wind METAR/SPECI
11:30 pm
V
54 °F 6¼ mi+ 3.200 ft Var 000° 0 kt METAR LFSL 302130Z AUTO 00000KT 9999 BKN032 BKN072 BKN098 12/11 Q1020
11:00 pm
V
54 °F 6¼ mi+ - Var 000° 0 kt METAR LFSL 302100Z AUTO 00000KT CAVOK 12/11 Q1020
10:30 pm
V
54 °F 6¼ mi+ - Var 000° 0 kt METAR LFSL 302030Z AUTO 00000KT CAVOK 12/12 Q1020
10:00 pm
V
55 °F 6¼ mi+ - Var 000° 0 kt METAR LFSL 302000Z AUTO 00000KT CAVOK 13/12 Q1019 NOSIG
9:30 pm
V
57 °F 6¼ mi+ - 200° 200° 1 kt METAR LFSL 301930Z AUTO 20001KT CAVOK 14/13 Q1019 NOSIG
9:00 pm
V
57 °F 6¼ mi+ 10.000 ft Var Var 2 kt METAR LFSL 301900Z AUTO VRB02KT 9999 SCT009 BKN100 BKN120 14/12 Q1019 NOSIG
8:30 pm
V
59 °F 6¼ mi+ - Var Var 2 kt METAR LFSL 301830Z AUTO VRB02KT CAVOK 15/12 Q1019 NOSIG
8:00 pm
V
57 °F 6¼ mi+ 10.000 ft Var Var 2 kt METAR LFSL 301800Z AUTO VRB02KT 9999 FEW008 SCT076 OVC100 14/12 Q1018 NOSIG
7:30 pm
V
57 °F 6¼ mi+ 9.400 ft Var Var 2 kt METAR LFSL 301730Z AUTO VRB02KT 9999 FEW008/// OVC094/// ///TCU 14/12 Q1018 BECMG SCT013 BKN030
7:00 pm
V
59 °F 6¼ mi+ 10.000 ft Var Var 2 kt METAR LFSL 301700Z AUTO VRB02KT 9999 SCT009/// BKN100/// ///TCU 15/12 Q1018 TEMPO 3000 RA BECMG SCT013 BKN030
6:30 pm
V
57 °F 6¼ mi+ 10.000 ft Var Var 2 kt METAR LFSL 301630Z AUTO VRB02KT 9999 FEW008/// BKN100/// //////TCU 14/12 Q1018 TEMPO 3000 RA BECMG SCT013 BKN030
6:00 pm
I
55 °F 6¼ mi+ 800 ft 310° 310° 3 kt METAR LFSL 301600Z AUTO 31003KT 280V340 9999 -RA OVC008/// ///TCU 13/12 Q1018 BECMG SCT013 BKN030
5:30 pm
I
57 °F 6¼ mi+ 700 ft 280° 280° 3 kt METAR LFSL 301530Z AUTO 28003KT 220V320 9999 -RA BKN007/// OVC032/// //////TCU 14/12 Q1018 BECMG SCT013 BKN030
5:00 pm
I
57 °F 6¼ mi+ 800 ft Var Var 2 kt METAR LFSL 301500Z AUTO VRB02KT 9999 -RA BKN008/// BKN036/// BKN046/// ///CB 14/12 Q1018 TEMPO 3000 RA BECMG SCT013 BKN030
Ältere Daten

Laden Sie unsere App herunter

Einfacher Zugriff auf das gesamte Flugwetter auf Ihrem Mobiltelefon und Tablet.
Mit vielen Funktionen, die auf der Website nicht verfügbar sind, wie Offline-Unterstützung und eine persönliche Flughafenliste.

Wir und Dritte verfolgen dein Internetverhalten auf unserer Website mit Cookies. Wenn du fortfährst, gehen wir davon aus, dass du mit unserer Cookie-Richtlinie einverstanden bist. Mehr erfahren